Manhattan, Nevada
Current Conditions -  °F | °C
As of 9:56 PM on Monday 20 Oct 2014 (Local Time) from KTPH Reporting Station
Clear Clear  
Wind Chill: 57°   Ceiling: Unl
Heat Index: 57°   Visibility: 10mi
Dew Point: 30°   Wind: 8mph
Humidity: 36%   Direction: 140°SE
Pressure: 29.96"   Gusts: NA
Location:  38.54°N, 117.07°W
Report Text: KTPH 210456Z AUTO 14007KT 10SM CLR 14/M01 A2996 RMK AO2 SLP096 T01391011
Loading
Personal Weather Stations






























Interactive Weather Map
Tropical Storm Tracking
New forecast layout! Learn more

10-Day Weather Forecast

Advertisements
Track Severe Weather on mobile